Time;durP1;ratioP1;P1;durP2;ratioP2;P2;SDS_P1;SDS_P2;PMS_P1;PMS_P2;Temp;Humidity;BMP_temperature;BMP_pressure;BME280_temperature;BME280_humidity;BME280_pressure;Samples;Min_cycle;Max_cycle;Signal;HPM_P1;HPM_P2
2022/01/26 00:06:42;;;;;;;28.23;11.30;;;;;;;0.61;99.13;100047.94;5066854;28;20058;-67
2022/01/26 00:09:09;;;;;;;39.25;14.27;;;;;;;0.56;99.30;100049.44;5066784;28;20396;-67
2022/01/26 00:11:36;;;;;;;38.05;13.90;;;;;;;0.50;99.25;100054.38;5077400;28;20074;-67
2022/01/26 00:14:03;;;;;;;35.28;10.60;;;;;;;0.52;99.24;100052.72;5086257;28;20023;-67
2022/01/26 00:16:41;;;;;;;34.42;11.63;;;;;;;0.56;99.70;100046.84;5077466;28;20056;-67
2022/01/26 00:19:10;;;;;;;40.85;13.27;;;;;;;0.54;99.63;100051.09;5071393;28;20027;-67
2022/01/26 00:21:41;;;;;;;38.35;13.48;;;;;;;0.57;99.68;100051.22;5077538;28;20024;-67
2022/01/26 00:29:23;;;;;;;41.92;12.52;;;;;;;0.55;99.75;100050.25;5067912;28;20025;-67
2022/01/26 00:40:10;;;;;;;35.33;11.23;;;;;;;0.47;100.00;100054.25;5066280;28;20055;-67
2022/01/26 00:42:38;;;;;;;36.67;14.50;;;;;;;0.47;100.00;100049.94;5066166;28;20059;-67
2022/01/26 00:45:06;;;;;;;34.38;11.77;;;;;;;0.50;100.00;100055.25;5077712;28;20008;-67
2022/01/26 00:47:31;;;;;;;30.13;12.65;;;;;;;0.52;100.00;100057.91;5085358;28;20059;-67
2022/01/26 00:50:01;;;;;;;39.20;12.75;;;;;;;0.51;99.96;100057.03;5084265;28;20020;-67
2022/01/26 00:52:39;;;;;;;33.45;11.48;;;;;;;0.39;100.00;100063.38;5084088;28;20020;-67
2022/01/26 00:55:07;;;;;;;24.50;10.90;;;;;;;0.43;100.00;100052.31;5085395;28;20028;-67
2022/01/26 00:57:32;;;;;;;42.13;12.52;;;;;;;0.47;100.00;100054.25;5076654;28;20033;-67
2022/01/26 00:59:59;;;;;;;35.83;11.70;;;;;;;0.51;100.00;100061.31;5071611;28;20066;-67
2022/01/26 01:02:25;;;;;;;37.83;12.32;;;;;;;0.50;100.00;100059.56;5066053;28;20021;-67
2022/01/26 01:04:50;;;;;;;40.45;12.13;;;;;;;0.48;100.00;100050.81;5066837;28;20032;-67
2022/01/26 01:07:20;;;;;;;35.13;13.77;;;;;;;0.48;99.97;100045.66;5065925;28;20019;-67
2022/01/26 01:09:46;;;;;;;43.05;13.35;;;;;;;0.47;100.00;100044.75;5065920;28;20233;-67
2022/01/26 01:12:12;;;;;;;40.67;13.63;;;;;;;0.51;100.00;100050.97;5077580;28;20036;-67
2022/01/26 01:14:39;;;;;;;49.42;15.00;;;;;;;0.50;100.00;100046.59;5069527;28;20251;-67
2022/01/26 01:17:09;;;;;;;34.42;11.52;;;;;;;0.47;100.00;100043.88;5065526;28;20032;-67
2022/01/26 01:19:40;;;;;;;35.42;11.63;;;;;;;0.46;100.00;100047.28;5066554;28;20012;-67
2022/01/26 01:25:18;;;;;;;42.90;13.23;;;;;;;0.48;99.67;100045.66;5065589;28;20028;-67
2022/01/26 01:31:12;;;;;;;32.05;11.55;;;;;;;0.39;99.32;100045.25;5064633;28;20041;-67
2022/01/26 01:33:31;;;;;;;37.72;14.52;;;;;;;0.33;99.90;100050.16;5066041;28;20025;-67
2022/01/26 01:35:59;;;;;;;37.25;12.85;;;;;;;0.39;99.83;100038.38;5084301;28;20021;-67
2022/01/26 01:38:27;;;;;;;25.60;11.20;;;;;;;0.37;99.71;100052.06;5084487;28;20096;-67
2022/01/26 01:40:53;;;;;;;40.17;13.88;;;;;;;0.29;99.42;100044.00;5074890;28;20028;-67
2022/01/26 01:43:21;;;;;;;39.42;14.02;;;;;;;0.21;100.00;100039.28;5077797;28;20054;-67
2022/01/26 01:45:50;;;;;;;42.05;13.70;;;;;;;0.29;100.00;100037.91;5076750;28;20027;-67
2022/01/26 01:48:26;;;;;;;34.65;12.95;;;;;;;0.25;100.00;100036.03;5064842;28;20328;-67
2022/01/26 01:50:53;;;;;;;47.67;15.07;;;;;;;0.22;100.00;100035.88;5064842;28;20021;-67
2022/01/26 01:53:19;;;;;;;36.30;13.60;;;;;;;0.14;100.00;100035.53;5065021;28;20025;-67
2022/01/26 01:55:49;;;;;;;35.33;11.82;;;;;;;0.22;99.78;100030.72;5072717;28;20025;-67
2022/01/26 01:58:17;;;;;;;37.63;14.65;;;;;;;0.25;100.00;100029.13;5067718;28;20024;-67
2022/01/26 02:00:43;;;;;;;37.28;13.55;;;;;;;0.20;100.00;100020.28;5084025;28;20016;-67
2022/01/26 02:03:09;;;;;;;38.50;11.05;;;;;;;0.17;99.51;100017.56;5066491;28;20324;-67
2022/01/26 02:05:34;;;;;;;36.85;13.30;;;;;;;0.24;100.00;100023.88;5064579;28;20088;-66
2022/01/26 02:08:00;;;;;;;46.92;15.25;;;;;;;0.36;99.50;100033.06;5064524;28;20033;-66
2022/01/26 02:10:28;;;;;;;47.30;15.02;;;;;;;0.37;99.44;100031.34;5067004;28;20021;-66
2022/01/26 02:12:56;;;;;;;39.45;13.63;;;;;;;0.38;99.59;100033.13;5083683;28;20049;-66
2022/01/26 02:15:32;;;;;;;36.28;13.90;;;;;;;0.42;99.73;100035.91;5066166;28;20032;-66
2022/01/26 02:55:48;;;;;;;40.38;14.55;;;;;;;0.15;100.00;100028.69;5083622;28;20044;-66
2022/01/26 03:03:43;;;;;;;32.63;12.48;;;;;;;0.21;100.00;100034.09;5063838;28;20013;-66
2022/01/26 03:06:14;;;;;;;37.30;11.68;;;;;;;0.17;99.75;100032.19;5064074;28;20039;-66
2022/01/26 03:08:50;;;;;;;32.20;12.05;;;;;;;0.17;99.95;100042.56;5076159;28;20012;-66
2022/01/26 03:11:16;;;;;;;42.20;13.85;;;;;;;0.22;99.88;100031.56;5074772;28;20308;-66
2022/01/26 03:13:51;;;;;;;35.08;14.68;;;;;;;0.11;99.99;100032.81;5067682;28;20071;-66
2022/01/26 03:19:26;;;;;;;43.13;13.27;;;;;;;0.09;100.00;100025.81;5073267;28;20033;-66
2022/01/26 03:30:27;;;;;;;41.50;15.75;;;;;;;0.21;100.00;100039.28;5076407;28;20028;-66
2022/01/26 03:35:41;;;;;;;36.33;13.77;;;;;;;0.30;100.00;100032.81;5066912;28;20104;-66
2022/01/26 03:38:09;;;;;;;31.95;10.32;;;;;;;0.26;99.94;100037.78;5067425;28;20040;-66
2022/01/26 03:40:37;;;;;;;38.25;13.32;;;;;;;0.18;99.81;100036.56;5068497;28;20025;-66
2022/01/26 03:43:04;;;;;;;46.40;14.55;;;;;;;0.24;99.71;100039.41;5069138;28;20080;-66
2022/01/26 03:45:29;;;;;;;52.63;14.70;;;;;;;0.24;99.72;100039.41;5087328;28;20392;-66
2022/01/26 03:47:55;;;;;;;40.35;12.23;;;;;;;0.25;100.00;100028.25;5087188;28;20020;-66
2022/01/26 03:50:25;;;;;;;38.80;12.13;;;;;;;0.27;99.81;100034.34;5087130;28;20017;-66
2022/01/26 03:52:50;;;;;;;42.72;15.07;;;;;;;0.29;100.00;100032.72;5068817;28;20025;-66
2022/01/26 03:55:16;;;;;;;45.30;13.48;;;;;;;0.29;100.00;100040.50;5086476;28;20016;-66
2022/01/26 03:57:42;;;;;;;41.55;15.00;;;;;;;0.29;100.00;100027.56;5086923;28;20020;-66
2022/01/26 04:00:08;;;;;;;42.83;13.07;;;;;;;0.30;100.00;100035.38;5086230;28;20219;-66
2022/01/26 04:02:35;;;;;;;38.35;13.57;;;;;;;0.23;100.00;100032.47;5082195;28;20020;-66
2022/01/26 04:05:04;;;;;;;37.80;12.00;;;;;;;0.23;100.00;100035.06;5074386;28;20024;-66
2022/01/26 04:07:30;;;;;;;39.47;13.45;;;;;;;0.19;100.00;100040.94;5083793;28;20061;-66
2022/01/26 04:10:04;;;;;;;42.17;13.43;;;;;;;0.13;100.00;100035.47;5072252;28;20058;-66
2022/01/26 04:12:30;;;;;;;30.33;10.73;;;;;;;0.17;100.00;100042.56;5085814;28;20051;-66
2022/01/26 04:15:03;;;;;;;34.85;11.52;;;;;;;0.20;100.00;100037.50;5076178;28;20343;-66
2022/01/26 04:17:28;;;;;;;30.80;11.80;;;;;;;0.25;100.00;100036.03;5086257;28;20034;-66
2022/01/26 04:19:57;;;;;;;29.85;11.35;;;;;;;0.22;99.83;100041.94;5086116;28;20331;-66
2022/01/26 04:22:30;;;;;;;36.03;11.07;;;;;;;0.18;100.00;100045.22;5076927;28;20040;-66
2022/01/26 04:24:56;;;;;;;29.45;10.52;;;;;;;0.26;100.00;100049.03;5078277;28;20020;-66
2022/01/26 04:27:35;;;;;;;31.63;9.63;;;;;;;0.27;100.00;100049.91;5085689;28;20027;-66
2022/01/26 04:30:00;;;;;;;32.33;11.23;;;;;;;0.29;99.97;100043.09;5073447;28;20316;-66
2022/01/26 04:32:26;;;;;;;32.88;12.25;;;;;;;0.34;100.00;100039.88;5067538;28;20020;-66
2022/01/26 04:34:51;;;;;;;37.95;12.70;;;;;;;0.31;100.00;100041.47;5067670;28;20027;-66
2022/01/26 04:39:59;;;;;;;38.25;12.50;;;;;;;0.27;100.00;100049.91;5070054;28;20096;-66
2022/01/26 04:42:45;;;;;;;38.42;11.32;;;;;;;0.34;100.00;100051.94;5066464;28;20366;-66
2022/01/26 04:45:11;;;;;;;33.35;10.90;;;;;;;0.36;100.00;100050.28;5067249;28;20055;-66
2022/01/26 04:47:37;;;;;;;37.95;12.40;;;;;;;0.37;100.00;100052.06;5066048;28;20021;-66
2022/01/26 04:50:06;;;;;;;40.67;11.48;;;;;;;0.40;100.00;100047.00;5066048;28;20029;-66
2022/01/26 04:52:31;;;;;;;48.22;13.70;;;;;;;0.39;100.00;100050.44;5082426;28;20024;-66
2022/01/26 04:54:56;;;;;;;29.80;10.25;;;;;;;0.41;100.00;100048.81;5065857;28;20202;-66
2022/01/26 04:57:22;;;;;;;32.80;11.52;;;;;;;0.44;100.00;100043.75;5065907;28;20364;-66
2022/01/26 04:59:47;;;;;;;30.70;9.88;;;;;;;0.48;100.00;100045.66;5067452;28;20332;-66
2022/01/26 05:02:13;;;;;;;49.13;13.65;;;;;;;0.42;100.00;100055.75;5085278;28;20025;-66
2022/01/26 05:04:39;;;;;;;38.13;10.98;;;;;;;0.31;100.00;100041.47;5085249;28;20020;-66
2022/01/26 05:07:04;;;;;;;30.52;10.52;;;;;;;0.35;100.00;100045.94;5068566;28;20205;-66
2022/01/26 05:09:29;;;;;;;35.30;12.40;;;;;;;0.40;100.00;100044.41;5085154;28;20372;-66
2022/01/26 05:11:56;;;;;;;39.47;12.90;;;;;;;0.42;100.00;100040.19;5084941;28;20071;-66
2022/01/26 05:14:22;;;;;;;33.88;10.45;;;;;;;0.44;100.00;100043.75;5083482;28;20028;-66
2022/01/26 05:16:47;;;;;;;37.10;12.32;;;;;;;0.45;100.00;100040.34;5080750;28;20025;-66
2022/01/26 05:19:13;;;;;;;42.50;14.13;;;;;;;0.42;100.00;100040.19;5066638;28;20020;-66
2022/01/26 05:21:38;;;;;;;43.80;13.35;;;;;;;0.41;100.00;100048.81;5065021;28;20028;-66
2022/01/26 05:24:04;;;;;;;31.92;11.70;;;;;;;0.44;100.00;100048.94;5074834;28;20024;-66
2022/01/26 05:26:30;;;;;;;36.75;14.30;;;;;;;0.48;100.00;100045.66;5083893;28;20062;-66
2022/01/26 05:28:55;;;;;;;41.42;12.15;;;;;;;0.49;100.00;100048.31;5083871;28;20019;-66
2022/01/26 05:31:22;;;;;;;37.80;11.32;;;;;;;0.46;100.00;100039.50;5083763;28;20072;-66
2022/01/26 05:33:47;;;;;;;34.47;11.48;;;;;;;0.50;100.00;100038.84;5077415;28;20028;-66
2022/01/26 05:36:13;;;;;;;40.22;13.60;;;;;;;0.46;100.00;100036.91;5072915;28;20132;-66
2022/01/26 05:38:39;;;;;;;41.85;13.10;;;;;;;0.45;100.00;100024.78;5081669;28;20095;-66
2022/01/26 05:41:04;;;;;;;37.83;11.55;;;;;;;0.48;100.00;100024.94;5085060;28;20084;-66
2022/01/26 05:43:33;;;;;;;29.17;10.32;;;;;;;0.52;100.00;100021.63;5084972;28;20272;-66
2022/01/26 05:46:05;;;;;;;40.75;13.32;;;;;;;0.46;100.00;100024.84;5084945;28;20027;-66
2022/01/26 05:48:30;;;;;;;37.53;11.57;;;;;;;0.45;100.00;100028.28;5085225;28;20095;-66
2022/01/26 05:51:04;;;;;;;37.58;9.43;;;;;;;0.43;100.00;100021.25;5084861;28;20250;-66
2022/01/26 05:53:31;;;;;;;34.95;12.40;;;;;;;0.44;100.00;100007.50;5084800;28;20032;-66
2022/01/26 05:55:58;;;;;;;38.67;10.50;;;;;;;0.41;100.00;100008.22;5084669;28;20033;-66
2022/01/26 05:58:24;;;;;;;35.45;11.60;;;;;;;0.44;100.00;100012.69;5084730;28;20320;-66
2022/01/26 06:00:49;;;;;;;33.38;11.00;;;;;;;0.35;100.00;100012.28;5084633;28;20024;-66
2022/01/26 06:03:15;;;;;;;41.33;10.45;;;;;;;0.43;100.00;100018.66;5084634;28;20248;-66
2022/01/26 06:05:40;;;;;;;33.42;10.73;;;;;;;0.44;100.00;100010.94;5084814;28;20024;-66
2022/01/26 06:08:06;;;;;;;26.15;10.48;;;;;;;0.47;100.00;100007.63;5084527;28;20024;-66
2022/01/26 06:10:32;;;;;;;42.85;12.23;;;;;;;0.37;100.00;100010.63;5084770;28;20094;-66
2022/01/26 06:12:58;;;;;;;42.38;11.65;;;;;;;0.42;100.00;100014.31;5084253;28;20036;-66
2022/01/26 06:15:23;;;;;;;44.03;10.88;;;;;;;0.36;100.00;100014.03;5084326;28;20043;-66
2022/01/26 06:17:49;;;;;;;35.45;10.48;;;;;;;0.45;100.00;100014.44;5084359;28;20024;-66
2022/01/26 06:20:14;;;;;;;40.53;13.55;;;;;;;0.50;100.00;100003.44;5084339;28;20031;-66
2022/01/26 06:22:40;;;;;;;29.02;8.95;;;;;;;0.52;100.00;99995.72;5084285;28;20025;-66
2022/01/26 06:25:07;;;;;;;37.50;11.10;;;;;;;0.45;100.00;100009.25;5084226;28;20040;-66
2022/01/26 06:27:34;;;;;;;35.47;9.73;;;;;;;0.47;100.00;100007.63;5084316;28;20025;-66
2022/01/26 06:30:00;;;;;;;24.50;8.10;;;;;;;0.49;100.00;100014.63;5084214;28;20032;-66
2022/01/26 06:32:27;;;;;;;37.03;10.88;;;;;;;0.52;100.00;100012.16;5084217;28;20084;-66
2022/01/26 06:34:52;;;;;;;30.70;9.65;;;;;;;0.52;100.00;100016.44;5082732;28;20259;-66
2022/01/26 06:37:18;;;;;;;34.13;9.63;;;;;;;0.56;100.00;100023.53;5083902;28;20024;-66
2022/01/26 06:39:44;;;;;;;30.13;8.98;;;;;;;0.52;100.00;100017.34;5084089;28;20028;-66
2022/01/26 06:42:14;;;;;;;32.70;9.13;;;;;;;0.55;100.00;100026.94;5084071;28;20024;-66
2022/01/26 06:44:56;;;;;;;32.88;9.45;;;;;;;0.54;100.00;100035.56;5084267;28;20336;-66
2022/01/26 06:49:50;;;;;;;28.33;8.98;;;;;;;0.54;100.00;100045.91;5083972;28;20332;-66
2022/01/26 06:52:15;;;;;;;28.67;9.00;;;;;;;0.59;100.00;100054.75;5083874;28;20020;-66
2022/01/26 06:54:41;;;;;;;33.95;10.07;;;;;;;0.59;100.00;100049.56;5083830;28;20059;-66
2022/01/26 06:57:06;;;;;;;28.67;8.80;;;;;;;0.62;100.00;100050.59;5083920;28;20095;-66
2022/01/26 06:59:32;;;;;;;29.02;8.68;;;;;;;0.64;100.00;100048.06;5083834;28;20050;-66
2022/01/26 07:01:57;;;;;;;24.67;9.60;;;;;;;0.65;100.00;100052.41;5083950;28;20021;-66
2022/01/26 07:04:22;;;;;;;38.55;13.13;;;;;;;0.55;100.00;100058.03;5083886;28;20044;-66
2022/01/26 07:06:48;;;;;;;32.55;11.00;;;;;;;0.61;100.00;100053.13;5083809;28;20280;-66
2022/01/26 07:09:16;;;;;;;33.92;10.80;;;;;;;0.61;100.00;100058.28;5083777;28;20052;-66
2022/01/26 07:11:41;;;;;;;34.15;10.48;;;;;;;0.68;100.00;100047.34;5083586;28;20276;-66
2022/01/26 07:14:09;;;;;;;42.42;11.70;;;;;;;0.68;100.00;100049.94;5083765;28;20020;-66
2022/01/26 07:22:03;;;;;;;27.05;10.93;;;;;;;0.73;100.00;100066.59;5083731;28;20026;-66
2022/01/26 07:24:29;;;;;;;33.22;10.38;;;;;;;0.70;100.00;100075.13;5081934;28;20044;-66
2022/01/26 07:26:54;;;;;;;33.65;11.00;;;;;;;0.71;100.00;100071.72;5082703;28;20017;-66
2022/01/26 07:29:24;;;;;;;31.25;9.43;;;;;;;0.74;100.00;100087.38;5082692;28;20031;-66
2022/01/26 07:31:51;;;;;;;24.30;8.07;;;;;;;0.76;100.00;100084.84;5083185;28;20020;-66
2022/01/26 07:34:20;;;;;;;33.33;9.98;;;;;;;0.73;100.00;100084.72;5082568;28;20024;-66
2022/01/26 07:36:47;;;;;;;29.27;9.90;;;;;;;0.74;100.00;100091.66;5082125;28;20024;-66
2022/01/26 07:39:17;;;;;;;36.95;10.20;;;;;;;0.77;100.00;100089.22;5082600;28;20371;-66
2022/01/26 07:41:42;;;;;;;20.95;6.95;;;;;;;0.72;100.00;100088.13;5082512;28;20025;-66
2022/01/26 07:44:08;;;;;;;25.38;9.55;;;;;;;0.71;100.00;100078.59;5081794;28;20024;-66
2022/01/26 07:46:33;;;;;;;34.28;9.90;;;;;;;0.70;100.00;100089.78;5086134;28;20016;-66
2022/01/26 07:48:59;;;;;;;33.28;10.63;;;;;;;0.70;100.00;100079.41;5095798;28;20016;-66
2022/01/26 07:51:25;;;;;;;23.05;7.80;;;;;;;0.72;100.00;100077.75;5073534;28;20248;-66
2022/01/26 07:53:50;;;;;;;28.77;9.38;;;;;;;0.75;100.00;100088.25;5084947;28;20063;-66
2022/01/26 07:56:16;;;;;;;25.65;7.95;;;;;;;0.80;100.00;100077.28;5102576;28;20024;-66
2022/01/26 07:58:42;;;;;;;23.55;7.88;;;;;;;0.88;100.00;100070.69;5093524;28;20048;-66
2022/01/26 08:01:08;;;;;;;27.77;9.70;;;;;;;0.80;100.00;100071.19;5079404;28;20030;-66
2022/01/26 08:03:34;;;;;;;27.35;8.98;;;;;;;0.86;100.00;100066.28;5084292;28;20025;-66
2022/01/26 08:06:03;;;;;;;32.83;9.95;;;;;;;0.89;100.00;100074.19;5074277;28;20047;-66
2022/01/26 08:08:29;;;;;;;22.23;7.32;;;;;;;0.83;100.00;100082.59;5076778;28;20027;-66
2022/01/26 08:10:56;;;;;;;20.95;9.27;;;;;;;0.82;100.00;100079.94;5074901;28;20036;-66
2022/01/26 08:13:21;;;;;;;27.70;8.45;;;;;;;0.90;100.00;100073.34;5076586;28;20046;-67
2022/01/26 08:15:47;;;;;;;29.70;10.38;;;;;;;0.83;100.00;100086.88;5085251;28;20048;-67
2022/01/26 08:18:13;;;;;;;27.55;10.07;;;;;;;0.87;100.00;100093.94;5082251;28;20073;-67
2022/01/26 08:20:40;;;;;;;23.60;7.63;;;;;;;0.88;100.00;100106.13;5074983;28;20021;-67
2022/01/26 08:23:06;;;;;;;22.40;9.35;;;;;;;0.81;100.00;100104.06;5074369;28;20047;-67
2022/01/26 08:25:32;;;;;;;21.13;8.07;;;;;;;0.85;100.00;100103.38;5081485;28;20320;-67
2022/01/26 08:28:24;;;;;;;24.92;7.72;;;;;;;0.90;100.00;100125.19;5078540;28;20092;-67
2022/01/26 08:30:43;;;;;;;35.92;9.38;;;;;;;0.91;100.00;100158.94;5074437;28;20048;-67
2022/01/26 08:33:08;;;;;;;25.23;8.82;;;;;;;0.90;100.00;100144.22;5081382;28;20020;-67
2022/01/26 08:35:35;;;;;;;23.95;8.30;;;;;;;0.84;100.00;100141.38;5079239;28;20126;-67
2022/01/26 08:38:00;;;;;;;23.80;9.07;;;;;;;0.88;100.00;100126.84;5067294;28;20017;-67
2022/01/26 08:40:26;;;;;;;19.48;7.28;;;;;;;0.89;100.00;100123.44;5071237;28;20028;-67
2022/01/26 08:42:52;;;;;;;22.48;9.05;;;;;;;0.97;100.00;100124.63;5064844;28;20027;-66
2022/01/26 08:45:17;;;;;;;28.80;10.43;;;;;;;0.96;100.00;100126.34;5076292;28;20020;-66
2022/01/26 08:47:43;;;;;;;28.00;10.85;;;;;;;0.94;100.00;100127.06;5082989;28;20111;-66
2022/01/26 08:50:09;;;;;;;23.20;7.95;;;;;;;0.99;100.00;100110.03;5086057;28;20028;-66
2022/01/26 08:52:36;;;;;;;19.02;7.88;;;;;;;0.95;100.00;100097.75;5086038;28;20084;-66
2022/01/26 08:55:03;;;;;;;20.17;7.90;;;;;;;0.93;100.00;100099.41;5085935;28;20029;-66
2022/01/26 08:57:29;;;;;;;20.15;6.78;;;;;;;0.95;99.82;100093.44;5085988;28;20217;-66
2022/01/26 08:59:54;;;;;;;17.15;7.15;;;;;;;0.98;100.00;100092.72;5085976;28;20051;-66
2022/01/26 09:02:20;;;;;;;24.23;8.70;;;;;;;1.03;99.86;100091.16;5085848;28;20080;-66
2022/01/26 09:04:45;;;;;;;23.90;9.63;;;;;;;1.04;99.65;100092.97;5085778;28;20024;-66
2022/01/26 09:07:15;;;;;;;18.75;6.85;;;;;;;1.09;99.64;100086.25;5085759;28;20070;-66
2022/01/26 09:09:43;;;;;;;17.13;7.82;;;;;;;1.08;99.56;100097.44;5084960;28;20063;-66
2022/01/26 09:12:11;;;;;;;21.83;7.30;;;;;;;1.07;99.23;100103.44;5085439;28;20048;-66
2022/01/26 09:14:37;;;;;;;19.05;6.95;;;;;;;1.09;99.46;100099.19;5085574;28;20025;-66
2022/01/26 09:17:05;;;;;;;25.05;8.57;;;;;;;1.12;99.57;100091.56;5085757;28;20024;-66
2022/01/26 09:19:32;;;;;;;17.88;7.03;;;;;;;1.08;99.39;100084.47;5085494;28;20024;-66
2022/01/26 09:22:10;;;;;;;19.63;6.55;;;;;;;1.12;99.38;100081.19;5085702;28;20217;-66
2022/01/26 09:24:37;;;;;;;23.63;7.90;;;;;;;1.10;99.26;100075.03;5085348;28;20031;-66
2022/01/26 09:27:05;;;;;;;21.02;7.78;;;;;;;1.14;99.07;100064.00;5085357;28;20090;-66
2022/01/26 09:29:31;;;;;;;20.17;8.07;;;;;;;1.08;99.25;100079.28;5085279;28;20031;-66
2022/01/26 09:31:57;;;;;;;24.67;9.13;;;;;;;1.11;99.30;100072.50;5085272;28;20020;-66
2022/01/26 09:34:26;;;;;;;25.35;8.35;;;;;;;1.11;99.23;100077.69;5085208;28;20343;-66
2022/01/26 09:36:52;;;;;;;33.58;10.48;;;;;;;1.12;99.13;100083.78;5085056;28;20073;-66
2022/01/26 09:39:19;;;;;;;29.80;9.55;;;;;;;1.15;99.38;100102.06;5085079;28;20021;-66
2022/01/26 09:41:46;;;;;;;23.55;9.02;;;;;;;1.15;98.74;100096.88;5085040;28;20074;-66
2022/01/26 09:44:12;;;;;;;27.10;9.77;;;;;;;1.09;98.82;100099.19;5085273;28;20308;-66
2022/01/26 09:46:39;;;;;;;26.15;8.25;;;;;;;1.05;99.00;100092.13;5084941;28;20044;-66
2022/01/26 09:49:06;;;;;;;24.95;9.40;;;;;;;1.11;99.18;100079.41;5084950;28;20020;-66
2022/01/26 09:51:39;;;;;;;18.58;8.45;;;;;;;1.13;98.86;100082.94;5084835;28;20040;-66
2022/01/26 09:54:11;;;;;;;27.27;9.15;;;;;;;1.04;98.68;100088.63;5084898;28;20032;-66
2022/01/26 09:56:37;;;;;;;23.55;9.38;;;;;;;1.08;99.25;100089.66;5084955;28;20193;-66
2022/01/26 09:59:03;;;;;;;25.45;9.52;;;;;;;1.00;99.04;100093.63;5084715;28;20024;-66
2022/01/26 10:01:42;;;;;;;28.30;10.23;;;;;;;1.05;99.33;100094.72;5084654;28;20365;-66
2022/01/26 10:04:21;;;;;;;20.85;9.07;;;;;;;1.07;99.46;100087.88;5084686;28;20028;-66
2022/01/26 10:07:02;;;;;;;34.17;9.82;;;;;;;1.03;99.54;100106.72;5084838;28;20016;-66
2022/01/26 10:09:57;;;;;;;30.77;10.50;;;;;;;1.04;99.22;100118.88;5084504;28;20020;-66
2022/01/26 10:17:45;;;;;;;24.17;9.23;;;;;;;0.90;98.75;100125.19;5084459;28;20062;-66
2022/01/26 10:20:17;;;;;;;32.28;11.18;;;;;;;0.94;98.65;100135.75;5084255;28;20024;-66
2022/01/26 10:22:44;;;;;;;33.83;10.32;;;;;;;0.97;98.53;100135.88;5084423;28;20120;-66
2022/01/26 10:25:19;;;;;;;25.05;9.63;;;;;;;0.98;98.27;100131.59;5084235;28;20025;-66
2022/01/26 10:27:49;;;;;;;26.33;10.43;;;;;;;1.00;98.48;100137.69;5084522;28;20036;-66
2022/01/26 10:30:18;;;;;;;25.27;10.48;;;;;;;0.97;98.83;100133.28;5084507;28;20224;-66
2022/01/26 10:32:45;;;;;;;19.27;8.15;;;;;;;0.98;98.80;100131.59;5084212;28;20044;-66
2022/01/26 10:35:14;;;;;;;29.10;10.15;;;;;;;1.04;99.17;100145.69;5084147;28;20017;-66
2022/01/26 10:37:55;;;;;;;20.40;9.93;;;;;;;1.03;99.01;100155.97;5084097;28;20378;-66
2022/01/26 10:40:25;;;;;;;31.83;10.53;;;;;;;1.08;98.79;100131.16;5084373;28;20343;-66
2022/01/26 10:43:05;;;;;;;20.95;9.27;;;;;;;1.00;98.73;100119.56;5084080;28;20095;-66
2022/01/26 10:45:47;;;;;;;21.17;8.68;;;;;;;0.93;98.24;100138.28;5084118;28;20020;-66
2022/01/26 10:48:37;;;;;;;22.33;8.32;;;;;;;0.92;98.45;100141.69;5084029;28;20026;-66
2022/01/26 10:53:57;;;;;;;21.38;8.98;;;;;;;0.85;98.37;100155.22;5084315;28;20025;-66
2022/01/26 10:56:22;;;;;;;20.05;8.63;;;;;;;0.79;98.48;100137.69;5084139;28;20025;-66
2022/01/26 10:58:48;;;;;;;18.50;7.30;;;;;;;0.81;98.21;100135.16;5083906;28;20252;-66
2022/01/26 11:01:13;;;;;;;23.08;8.93;;;;;;;0.79;98.78;100136.81;5083862;28;20096;-66
2022/01/26 11:03:39;;;;;;;21.40;9.77;;;;;;;0.80;98.92;100139.47;5078205;28;20035;-66
2022/01/26 11:06:06;;;;;;;18.95;9.63;;;;;;;0.79;98.99;100136.81;5074769;28;20025;-66
2022/01/26 11:08:36;;;;;;;19.00;8.82;;;;;;;0.83;98.73;100120.56;5083842;28;20020;-66
2022/01/26 11:11:02;;;;;;;22.42;9.50;;;;;;;0.84;98.70;100105.09;5076398;28;20078;-66
2022/01/26 11:13:36;;;;;;;18.23;8.57;;;;;;;0.94;98.53;100106.34;5073715;28;20391;-66
2022/01/26 11:16:13;;;;;;;17.90;7.70;;;;;;;0.97;98.49;100112.53;5072603;28;20031;-66
2022/01/26 11:18:51;;;;;;;30.42;11.30;;;;;;;0.99;99.23;100107.44;5067854;28;20039;-66
2022/01/26 11:21:28;;;;;;;25.67;11.98;;;;;;;0.88;99.15;100111.28;5073680;28;20016;-66
2022/01/26 11:24:18;;;;;;;26.25;10.48;;;;;;;0.93;99.06;100120.13;5073553;28;20020;-66
2022/01/26 11:26:46;;;;;;;24.52;11.77;;;;;;;1.03;98.83;100130.06;5073307;28;20419;-66
2022/01/26 11:29:16;;;;;;;23.17;10.80;;;;;;;1.03;98.53;100128.38;5070722;28;20044;-66
2022/01/26 11:31:42;;;;;;;23.70;9.68;;;;;;;1.06;98.19;100122.41;5067556;28;20332;-66
2022/01/26 11:34:10;;;;;;;29.75;10.70;;;;;;;1.02;98.07;100121.41;5065853;28;20051;-66
2022/01/26 11:36:39;;;;;;;23.65;10.68;;;;;;;1.05;97.88;100125.84;5066411;28;20159;-66
2022/01/26 11:42:15;;;;;;;26.00;9.48;;;;;;;1.04;97.97;100124.06;5066407;28;20036;-66
2022/01/26 11:42:30;;;;;;;27.50;11.70;;;;;;;1.02;97.78;100120.53;5066366;28;20029;-66
2022/01/26 11:45:10;;;;;;;25.02;10.60;;;;;;;0.92;97.98;100128.75;5069264;28;20036;-66
2022/01/26 11:47:38;;;;;;;21.70;8.13;;;;;;;0.88;98.18;100112.16;5072224;28;20029;-66
2022/01/26 11:50:10;;;;;;;30.90;10.30;;;;;;;0.93;98.24;100109.75;5094610;28;20120;-66
2022/01/26 11:52:38;;;;;;;24.05;9.65;;;;;;;1.03;97.99;100111.91;5083840;28;20074;-66
2022/01/26 11:55:36;;;;;;;19.35;10.05;;;;;;;1.02;98.02;100110.16;5077002;28;20024;-66
2022/01/26 11:58:10;;;;;;;24.30;10.63;;;;;;;1.02;98.29;100099.78;5099692;28;20012;-66
2022/01/26 12:01:11;;;;;;;22.33;9.02;;;;;;;0.99;98.72;100100.56;5106209;28;20028;-66
2022/01/26 12:03:31;;;;;;;19.98;9.85;;;;;;;1.00;98.09;100096.22;5085846;28;20328;-66
2022/01/26 12:05:59;;;;;;;27.88;10.98;;;;;;;0.92;98.17;100084.69;5085992;28;20087;-66
2022/01/26 12:08:37;;;;;;;24.27;9.63;;;;;;;1.00;98.66;100096.22;5086408;28;20332;-66
2022/01/26 12:11:05;;;;;;;22.45;9.20;;;;;;;1.01;98.23;100098.88;5086056;28;20020;-66
2022/01/26 12:13:32;;;;;;;24.20;11.02;;;;;;;0.98;98.62;100095.31;5085666;28;20040;-66
2022/01/26 12:16:08;;;;;;;21.45;9.60;;;;;;;1.00;98.91;100096.22;5085977;28;20233;-66
2022/01/26 12:18:42;;;;;;;25.48;10.63;;;;;;;1.01;98.61;100093.69;5086072;28;20087;-66
2022/01/26 12:42:52;;;;;;;26.98;9.65;;;;;;;1.10;98.08;100098.38;5086343;28;20039;-67
2022/01/26 12:45:23;;;;;;;22.85;9.55;;;;;;;1.12;98.29;100081.19;5086425;28;20024;-67
2022/01/26 12:47:51;;;;;;;27.40;10.50;;;;;;;1.10;98.18;100075.03;5086228;28;20249;-67
2022/01/26 12:50:17;;;;;;;25.38;9.32;;;;;;;1.15;98.33;100065.75;5086125;28;20269;-67
2022/01/26 12:52:46;;;;;;;28.77;11.25;;;;;;;1.15;98.54;100081.31;5086058;28;20024;-67
2022/01/26 12:55:27;;;;;;;22.38;10.52;;;;;;;1.18;98.22;100089.22;5086000;28;20339;-67
2022/01/26 12:57:54;;;;;;;19.05;8.20;;;;;;;1.19;97.79;100098.75;5086036;28;20197;-67
2022/01/26 13:00:21;;;;;;;25.20;9.30;;;;;;;1.22;97.18;100088.50;5086205;28;20020;-67
2022/01/26 13:02:47;;;;;;;23.20;9.80;;;;;;;1.18;96.70;100086.63;5085886;28;20074;-67
2022/01/26 13:05:15;;;;;;;19.42;8.88;;;;;;;1.10;96.78;100077.63;5086118;28;20320;-67
2022/01/26 13:07:41;;;;;;;19.38;7.10;;;;;;;1.09;96.77;100070.69;5086072;28;20092;-67
2022/01/26 13:10:15;;;;;;;24.30;9.25;;;;;;;1.09;97.21;100075.88;5085816;28;20032;-67
2022/01/26 13:12:41;;;;;;;24.17;9.07;;;;;;;1.08;97.34;100079.28;5085554;28;20043;-67
2022/01/26 13:15:30;;;;;;;24.35;9.32;;;;;;;1.13;97.25;100082.94;5085543;28;20028;-67
2022/01/26 13:18:02;;;;;;;32.03;9.90;;;;;;;1.08;98.22;100094.84;5085280;28;20032;-67
2022/01/26 13:23:56;;;;;;;23.90;8.75;;;;;;;1.10;98.12;100094.09;5083937;28;20088;-67
2022/01/26 13:26:25;;;;;;;22.17;8.35;;;;;;;1.03;98.50;100109.31;5084083;28;20040;-67
2022/01/26 13:32:03;;;;;;;27.30;10.07;;;;;;;1.02;98.45;100112.75;5065304;28;20084;-67
2022/01/26 13:40:04;;;;;;;20.08;8.70;;;;;;;1.05;97.36;100094.72;5065199;28;20216;-67